SCO26PQ EGPE-EGPA

Flight info

Callsign SCO26PQ
Flight time 0h 26m
Altitude 11000
Route BONBY DCT WIK DCT KOKAL
Aircraft AT46/M-SDFGIRY/S

Departure

Time 2026-05-07 13:39
Airport Inverness Airport (EGPE)

Arrival

Time 2026-05-07 14:05
Airport Kirkwall Airport (EGPA)
Time Latitude Longitude Altitude Speed Heading
2026-05-07 13:15 57.53915 -4.06258 33 ft 0 kts 276°
2026-05-07 13:34 57.53914 -4.06262 33 ft 1 kts 242°
2026-05-07 13:35 57.53910 -4.06259 33 ft 1 kts 137°
2026-05-07 13:35 57.53873 -4.06174 33 ft 14 kts 157°
2026-05-07 13:35 57.53802 -4.06177 33 ft 6 kts 167°
2026-05-07 13:35 57.53749 -4.06086 35 ft 12 kts 122°
2026-05-07 13:36 57.53713 -4.05968 36 ft 10 kts 112°
2026-05-07 13:36 57.53756 -4.05826 36 ft 25 kts 49°
2026-05-07 13:36 57.53936 -4.05433 36 ft 53 kts 50°
2026-05-07 13:36 57.54200 -4.04858 31 ft 51 kts 49°
2026-05-07 13:37 57.54417 -4.04396 30 ft 43 kts 48°
2026-05-07 13:37 57.54587 -4.04006 27 ft 35 kts 52°
2026-05-07 13:37 57.54723 -4.03688 26 ft 29 kts 50°
2026-05-07 13:37 57.54787 -4.03577 27 ft 2 kts 276°
2026-05-07 13:38 57.54776 -4.03611 28 ft 1 kts 230°
2026-05-07 13:38 57.54773 -4.03618 28 ft 10 kts 230°
2026-05-07 13:38 57.54535 -4.04122 27 ft 89 kts 228°
2026-05-07 13:38 57.54019 -4.05228 264 ft 122 kts 226°
2026-05-07 13:39 57.53484 -4.06447 1024 ft 118 kts 224°
2026-05-07 13:39 57.52976 -4.07556 1881 ft 114 kts 225°
2026-05-07 13:39 57.52568 -4.08936 2193 ft 139 kts 259°
2026-05-07 13:39 57.53004 -4.10582 2818 ft 158 kts 304°
2026-05-07 13:40 57.53999 -4.11624 3310 ft 174 kts 342°
2026-05-07 13:40 57.55213 -4.11475 3843 ft 184 kts 13°
2026-05-07 13:40 57.56387 -4.10194 4172 ft 199 kts 41°
2026-05-07 13:40 57.57436 -4.08535 4825 ft 198 kts 40°
2026-05-07 13:41 57.58518 -4.06921 5459 ft 200 kts 38°
2026-05-07 13:41 57.59651 -4.05407 6061 ft 202 kts 34°
2026-05-07 13:41 57.60841 -4.04008 6649 ft 202 kts 30°
2026-05-07 13:41 57.62066 -4.02692 7228 ft 203 kts 28°
2026-05-07 13:42 57.63303 -4.01403 7802 ft 204 kts 28°
2026-05-07 13:42 57.64421 -4.00218 8322 ft 205 kts 29°
2026-05-07 13:42 57.65645 -3.98911 8868 ft 207 kts 29°
2026-05-07 13:42 57.66887 -3.97569 9412 ft 207 kts 30°
2026-05-07 13:43 57.68138 -3.96210 9919 ft 209 kts 28°
2026-05-07 13:43 57.69421 -3.94824 10256 ft 220 kts 29°
2026-05-07 13:43 57.70763 -3.93370 10671 ft 223 kts 29°
2026-05-07 13:43 57.72119 -3.91901 10975 ft 234 kts 29°
2026-05-07 13:44 57.73586 -3.90307 10991 ft 253 kts 29°
2026-05-07 13:44 57.75162 -3.88596 10995 ft 269 kts 29°
2026-05-07 13:44 57.76816 -3.86805 11001 ft 279 kts 29°
2026-05-07 13:44 57.78518 -3.84950 11002 ft 287 kts 29°
2026-05-07 13:45 57.80243 -3.83071 11002 ft 293 kts 30°
2026-05-07 13:45 57.82019 -3.81134 10994 ft 297 kts 30°
2026-05-07 13:45 57.83814 -3.79174 10996 ft 299 kts 30°
2026-05-07 13:45 57.85620 -3.77206 11001 ft 302 kts 29°
2026-05-07 13:46 57.87439 -3.75223 10991 ft 303 kts 29°
2026-05-07 13:46 57.89265 -3.73218 10999 ft 304 kts 30°
2026-05-07 13:46 57.91097 -3.71202 11001 ft 304 kts 30°
2026-05-07 13:46 57.92890 -3.69241 11352 ft 293 kts 29°
2026-05-07 13:47 57.94630 -3.67331 11589 ft 289 kts 29°
2026-05-07 13:47 57.96369 -3.65416 11720 ft 290 kts 29°
2026-05-07 13:47 57.98115 -3.63489 11860 ft 291 kts 29°
2026-05-07 13:47 57.99863 -3.61559 12018 ft 292 kts 29°
2026-05-07 13:48 58.01618 -3.59622 12163 ft 292 kts 29°
2026-05-07 13:48 58.03373 -3.57680 12301 ft 293 kts 29°
2026-05-07 13:48 58.05113 -3.55760 12420 ft 294 kts 29°
2026-05-07 13:48 58.06879 -3.53802 12543 ft 295 kts 29°
2026-05-07 13:49 58.08652 -3.51837 12657 ft 296 kts 29°
2026-05-07 13:49 58.10429 -3.49863 12762 ft 297 kts 29°
2026-05-07 13:49 58.12208 -3.47884 12901 ft 297 kts 28°
2026-05-07 13:49 58.13993 -3.45900 12950 ft 299 kts 29°
2026-05-07 13:50 58.15799 -3.43884 12974 ft 302 kts 29°
2026-05-07 13:50 58.17615 -3.41857 12982 ft 304 kts 28°
2026-05-07 13:50 58.19449 -3.39806 12991 ft 306 kts 29°
2026-05-07 13:50 58.21291 -3.37748 12992 ft 308 kts 29°
2026-05-07 13:51 58.23138 -3.35678 12989 ft 309 kts 29°
2026-05-07 13:51 58.24965 -3.33633 12992 ft 309 kts 29°
2026-05-07 13:51 58.26817 -3.31551 12993 ft 310 kts 29°
2026-05-07 13:51 58.28676 -3.29467 12995 ft 310 kts 28°
2026-05-07 13:52 58.30541 -3.27370 13002 ft 312 kts 29°
2026-05-07 13:52 58.32417 -3.25253 12998 ft 315 kts 29°
2026-05-07 13:52 58.34310 -3.23115 12999 ft 317 kts 28°
2026-05-07 13:52 58.36214 -3.20966 13002 ft 319 kts 29°
2026-05-07 13:53 58.38130 -3.18795 12997 ft 320 kts 29°
2026-05-07 13:53 58.40048 -3.16628 13000 ft 320 kts 29°
2026-05-07 13:53 58.41968 -3.14451 13003 ft 321 kts 29°
2026-05-07 13:53 58.43864 -3.12293 13004 ft 322 kts 29°
2026-05-07 13:54 58.45826 -3.10131 12998 ft 320 kts 23°
2026-05-07 13:54 58.47933 -3.08887 12998 ft 315 kts
2026-05-07 13:54 58.50083 -3.08168 12997 ft 314 kts
2026-05-07 13:54 58.52236 -3.07479 13001 ft 314 kts
2026-05-07 13:55 58.54360 -3.06671 12987 ft 316 kts
2026-05-07 13:55 58.56472 -3.05747 12635 ft 307 kts
2026-05-07 13:55 58.58530 -3.04811 12189 ft 299 kts
2026-05-07 13:55 58.60534 -3.03951 11767 ft 292 kts
2026-05-07 13:56 58.62498 -3.03132 11350 ft 286 kts
2026-05-07 13:56 58.64430 -3.02325 10948 ft 282 kts
2026-05-07 13:56 58.66339 -3.01537 10548 ft 281 kts
2026-05-07 13:56 58.68269 -3.00767 10150 ft 287 kts
2026-05-07 13:57 58.70235 -2.99998 9757 ft 290 kts
2026-05-07 13:57 58.72227 -2.99198 9323 ft 292 kts
2026-05-07 13:57 58.74222 -2.98370 8865 ft 293 kts
2026-05-07 13:57 58.76204 -2.97614 8392 ft 286 kts
2026-05-07 13:58 58.78118 -2.98206 7926 ft 275 kts 332°
2026-05-07 13:58 58.79713 -3.00112 7469 ft 267 kts 316°
2026-05-07 13:58 58.81037 -3.02584 7000 ft 262 kts 307°
2026-05-07 13:58 58.82230 -3.05228 6544 ft 261 kts 304°
2026-05-07 13:59 58.83388 -3.07863 6090 ft 260 kts 305°
2026-05-07 13:59 58.84570 -3.10510 5610 ft 261 kts 306°
2026-05-07 13:59 58.85786 -3.13122 5144 ft 261 kts 307°
2026-05-07 13:59 58.86992 -3.15670 4680 ft 253 kts 307°
2026-05-07 14:00 58.88166 -3.18135 4222 ft 246 kts 307°
2026-05-07 14:00 58.89366 -3.20388 3821 ft 239 kts 321°
2026-05-07 14:00 58.90959 -3.21273 3460 ft 243 kts 359°
2026-05-07 14:00 58.92596 -3.20596 3124 ft 239 kts 20°
2026-05-07 14:01 58.93992 -3.18964 2796 ft 233 kts 46°
2026-05-07 14:01 58.94814 -3.16458 2565 ft 209 kts 80°
2026-05-07 14:01 58.95109 -3.13821 2524 ft 196 kts 85°
2026-05-07 14:01 58.95335 -3.11290 2452 ft 183 kts 91°
2026-05-07 14:02 58.95370 -3.09698 2351 ft 176 kts 97°
2026-05-07 14:02 58.95379 -3.07335 2058 ft 173 kts 96°
2026-05-07 14:02 58.95441 -3.05069 1789 ft 164 kts 95°
2026-05-07 14:02 58.95507 -3.02907 1528 ft 158 kts 95°
2026-05-07 14:03 58.95545 -3.00853 1276 ft 145 kts 96°
2026-05-07 14:03 58.95593 -2.99005 1051 ft 129 kts 97°
2026-05-07 14:03 58.95631 -2.97364 831 ft 116 kts 98°
2026-05-07 14:03 58.95668 -2.95870 638 ft 106 kts 98°
2026-05-07 14:04 58.95705 -2.94415 452 ft 111 kts 95°
2026-05-07 14:04 58.95739 -2.92898 235 ft 114 kts 98°
2026-05-07 14:04 58.95779 -2.91416 106 ft 107 kts 98°
2026-05-07 14:04 58.95804 -2.90048 48 ft 92 kts 99°
2026-05-07 14:05 58.95805 -2.89534 44 ft 17 kts 83°
2026-05-07 14:05 58.95801 -2.89367 43 ft 7 kts 143°
2026-05-07 14:05 58.95774 -2.89371 45 ft 9 kts 212°
2026-05-07 14:05 58.95710 -2.89480 45 ft 11 kts 222°
2026-05-07 14:06 58.95671 -2.89548 45 ft 6 kts 222°
2026-05-07 14:06 58.95636 -2.89615 45 ft 8 kts 221°
2026-05-07 14:06 58.95579 -2.89711 45 ft 15 kts 222°
2026-05-07 14:06 58.95499 -2.89850 45 ft 12 kts 224°
2026-05-07 14:07 58.95455 -2.89930 45 ft 6 kts 229°
2026-05-07 14:07 58.95433 -2.89999 45 ft 7 kts 246°
2026-05-07 14:07 58.95421 -2.90071 45 ft 1 kts 282°
2026-05-07 14:07 58.95434 -2.90117 43 ft 2 kts 230°
2026-05-07 14:08 58.95426 -2.90126 45 ft 2 kts 179°
2026-05-07 14:08 58.95423 -2.90122 45 ft 1 kts 132°
2026-05-07 14:08 58.95419 -2.90117 45 ft 0 kts 143°